sensor_id;sensor_type;location;lat;lon;timestamp;temperature;humidity
5508;DHT22;2776;51.046;6.772;2023-10-08T00:01:53;18.80;99.90
5508;DHT22;2776;51.046;6.772;2023-10-08T00:04:21;18.80;99.90
5508;DHT22;2776;51.046;6.772;2023-10-08T00:06:48;18.80;99.90
5508;DHT22;2776;51.046;6.772;2023-10-08T00:09:19;18.80;99.90
5508;DHT22;2776;51.046;6.772;2023-10-08T00:11:46;18.80;99.90
5508;DHT22;2776;51.046;6.772;2023-10-08T00:14:18;18.70;99.90
5508;DHT22;2776;51.046;6.772;2023-10-08T00:16:47;18.70;99.90
5508;DHT22;2776;51.046;6.772;2023-10-08T00:19:15;18.60;99.90
5508;DHT22;2776;51.046;6.772;2023-10-08T00:21:44;18.60;99.90
5508;DHT22;2776;51.046;6.772;2023-10-08T00:24:14;18.60;99.90
5508;DHT22;2776;51.046;6.772;2023-10-08T00:26:42;18.60;99.90
5508;DHT22;2776;51.046;6.772;2023-10-08T00:29:09;18.50;99.90
5508;DHT22;2776;51.046;6.772;2023-10-08T00:31:42;18.50;99.90
5508;DHT22;2776;51.046;6.772;2023-10-08T00:34:10;18.50;99.90
5508;DHT22;2776;51.046;6.772;2023-10-08T00:36:39;18.50;99.90
5508;DHT22;2776;51.046;6.772;2023-10-08T00:39:07;18.50;99.90
5508;DHT22;2776;51.046;6.772;2023-10-08T00:41:41;18.50;99.90
5508;DHT22;2776;51.046;6.772;2023-10-08T00:44:09;18.40;99.90
5508;DHT22;2776;51.046;6.772;2023-10-08T00:46:41;18.40;99.90
5508;DHT22;2776;51.046;6.772;2023-10-08T00:49:13;18.50;99.90
5508;DHT22;2776;51.046;6.772;2023-10-08T00:51:52;18.50;99.90
5508;DHT22;2776;51.046;6.772;2023-10-08T00:54:50;18.50;99.90
5508;DHT22;2776;51.046;6.772;2023-10-08T00:57:34;18.40;99.90
5508;DHT22;2776;51.046;6.772;2023-10-08T01:00:02;18.40;99.90
5508;DHT22;2776;51.046;6.772;2023-10-08T01:02:32;18.30;99.90
5508;DHT22;2776;51.046;6.772;2023-10-08T01:05:10;18.20;99.90
5508;DHT22;2776;51.046;6.772;2023-10-08T01:07:39;18.10;99.90
5508;DHT22;2776;51.046;6.772;2023-10-08T01:10:10;18.00;99.90
5508;DHT22;2776;51.046;6.772;2023-10-08T01:12:40;18.10;99.90
5508;DHT22;2776;51.046;6.772;2023-10-08T01:15:20;18.00;99.90
5508;DHT22;2776;51.046;6.772;2023-10-08T01:17:53;18.00;99.90
5508;DHT22;2776;51.046;6.772;2023-10-08T01:20:26;17.90;99.90
5508;DHT22;2776;51.046;6.772;2023-10-08T01:23:01;17.80;99.90
5508;DHT22;2776;51.046;6.772;2023-10-08T01:25:36;17.80;99.90
5508;DHT22;2776;51.046;6.772;2023-10-08T01:28:04;17.70;99.90
5508;DHT22;2776;51.046;6.772;2023-10-08T01:30:41;17.60;99.90
5508;DHT22;2776;51.046;6.772;2023-10-08T01:33:12;17.60;99.90
5508;DHT22;2776;51.046;6.772;2023-10-08T01:35:40;17.60;99.90
5508;DHT22;2776;51.046;6.772;2023-10-08T01:38:08;17.50;99.90
5508;DHT22;2776;51.046;6.772;2023-10-08T01:40:39;17.50;99.90
5508;DHT22;2776;51.046;6.772;2023-10-08T01:43:06;17.50;99.90
5508;DHT22;2776;51.046;6.772;2023-10-08T01:45:36;17.40;99.90
5508;DHT22;2776;51.046;6.772;2023-10-08T01:48:06;17.30;99.90
5508;DHT22;2776;51.046;6.772;2023-10-08T01:50:35;17.30;99.90
5508;DHT22;2776;51.046;6.772;2023-10-08T01:53:02;17.40;99.90
5508;DHT22;2776;51.046;6.772;2023-10-08T01:55:32;17.30;99.90
5508;DHT22;2776;51.046;6.772;2023-10-08T01:58:11;17.30;99.90
5508;DHT22;2776;51.046;6.772;2023-10-08T02:00:42;17.10;99.90
5508;DHT22;2776;51.046;6.772;2023-10-08T02:03:08;17.20;99.90
5508;DHT22;2776;51.046;6.772;2023-10-08T02:05:35;17.20;99.90
5508;DHT22;2776;51.046;6.772;2023-10-08T02:08:04;17.20;99.90
5508;DHT22;2776;51.046;6.772;2023-10-08T02:10:33;17.10;99.90
5508;DHT22;2776;51.046;6.772;2023-10-08T02:13:00;17.10;99.90
5508;DHT22;2776;51.046;6.772;2023-10-08T02:15:28;17.10;99.90
5508;DHT22;2776;51.046;6.772;2023-10-08T02:17:55;17.10;99.90
5508;DHT22;2776;51.046;6.772;2023-10-08T02:20:22;17.10;99.90
5508;DHT22;2776;51.046;6.772;2023-10-08T02:22:49;17.00;99.90
5508;DHT22;2776;51.046;6.772;2023-10-08T02:25:16;17.00;99.90
5508;DHT22;2776;51.046;6.772;2023-10-08T02:27:45;17.00;99.90
5508;DHT22;2776;51.046;6.772;2023-10-08T02:30:12;17.00;99.90
5508;DHT22;2776;51.046;6.772;2023-10-08T02:32:39;17.00;99.90
5508;DHT22;2776;51.046;6.772;2023-10-08T02:35:08;17.00;99.90
5508;DHT22;2776;51.046;6.772;2023-10-08T02:37:36;17.10;99.90
5508;DHT22;2776;51.046;6.772;2023-10-08T02:40:06;17.10;99.90
5508;DHT22;2776;51.046;6.772;2023-10-08T02:42:45;17.10;99.90
5508;DHT22;2776;51.046;6.772;2023-10-08T02:45:13;17.10;99.90
5508;DHT22;2776;51.046;6.772;2023-10-08T02:47:41;17.00;99.90
5508;DHT22;2776;51.046;6.772;2023-10-08T02:50:10;17.00;99.90
5508;DHT22;2776;51.046;6.772;2023-10-08T02:52:42;17.10;99.90
5508;DHT22;2776;51.046;6.772;2023-10-08T02:55:10;17.10;99.90
5508;DHT22;2776;51.046;6.772;2023-10-08T02:57:55;17.10;99.90
5508;DHT22;2776;51.046;6.772;2023-10-08T03:00:22;17.10;99.90
5508;DHT22;2776;51.046;6.772;2023-10-08T03:02:55;17.10;99.90
5508;DHT22;2776;51.046;6.772;2023-10-08T03:05:22;17.20;99.90
5508;DHT22;2776;51.046;6.772;2023-10-08T03:07:55;17.20;99.90
5508;DHT22;2776;51.046;6.772;2023-10-08T03:10:23;17.20;99.90
5508;DHT22;2776;51.046;6.772;2023-10-08T03:12:59;17.20;99.90
5508;DHT22;2776;51.046;6.772;2023-10-08T03:15:29;17.10;99.90
5508;DHT22;2776;51.046;6.772;2023-10-08T03:18:04;17.10;99.90
5508;DHT22;2776;51.046;6.772;2023-10-08T03:20:35;17.10;99.90
5508;DHT22;2776;51.046;6.772;2023-10-08T03:23:09;16.90;99.90
5508;DHT22;2776;51.046;6.772;2023-10-08T03:25:52;17.00;99.90
5508;DHT22;2776;51.046;6.772;2023-10-08T03:28:26;16.90;99.90
5508;DHT22;2776;51.046;6.772;2023-10-08T03:30:54;16.90;99.90
5508;DHT22;2776;51.046;6.772;2023-10-08T03:33:29;16.80;99.90
5508;DHT22;2776;51.046;6.772;2023-10-08T03:36:00;16.90;99.90
5508;DHT22;2776;51.046;6.772;2023-10-08T03:38:34;16.80;99.90
5508;DHT22;2776;51.046;6.772;2023-10-08T03:41:10;16.80;99.90
5508;DHT22;2776;51.046;6.772;2023-10-08T03:43:43;16.80;99.90
5508;DHT22;2776;51.046;6.772;2023-10-08T03:46:19;16.80;99.90
5508;DHT22;2776;51.046;6.772;2023-10-08T03:48:47;16.80;99.90
5508;DHT22;2776;51.046;6.772;2023-10-08T03:51:16;16.70;99.90
5508;DHT22;2776;51.046;6.772;2023-10-08T03:53:46;16.70;99.90
5508;DHT22;2776;51.046;6.772;2023-10-08T03:56:25;16.70;99.90
5508;DHT22;2776;51.046;6.772;2023-10-08T03:58:56;16.60;99.90
5508;DHT22;2776;51.046;6.772;2023-10-08T04:01:26;16.70;99.90
5508;DHT22;2776;51.046;6.772;2023-10-08T04:03:58;16.60;99.90
5508;DHT22;2776;51.046;6.772;2023-10-08T04:06:27;16.60;99.90
5508;DHT22;2776;51.046;6.772;2023-10-08T04:09:04;16.60;99.90
5508;DHT22;2776;51.046;6.772;2023-10-08T04:11:49;16.60;99.90
5508;DHT22;2776;51.046;6.772;2023-10-08T04:14:21;16.60;99.90
5508;DHT22;2776;51.046;6.772;2023-10-08T04:16:47;16.60;99.90
5508;DHT22;2776;51.046;6.772;2023-10-08T04:19:17;16.50;99.90
5508;DHT22;2776;51.046;6.772;2023-10-08T04:21:44;16.50;99.90
5508;DHT22;2776;51.046;6.772;2023-10-08T04:24:20;16.40;99.90
5508;DHT22;2776;51.046;6.772;2023-10-08T04:26:54;16.40;99.90
5508;DHT22;2776;51.046;6.772;2023-10-08T04:29:23;16.50;99.90
5508;DHT22;2776;51.046;6.772;2023-10-08T04:31:50;16.40;99.90
5508;DHT22;2776;51.046;6.772;2023-10-08T04:34:26;16.50;99.90
5508;DHT22;2776;51.046;6.772;2023-10-08T04:36:53;16.50;99.90
5508;DHT22;2776;51.046;6.772;2023-10-08T04:39:21;16.40;99.90
5508;DHT22;2776;51.046;6.772;2023-10-08T04:41:57;16.30;99.90
5508;DHT22;2776;51.046;6.772;2023-10-08T04:44:27;16.30;99.90
5508;DHT22;2776;51.046;6.772;2023-10-08T04:46:57;16.30;99.90
5508;DHT22;2776;51.046;6.772;2023-10-08T04:49:30;16.30;99.90
5508;DHT22;2776;51.046;6.772;2023-10-08T04:51:59;16.30;99.90
5508;DHT22;2776;51.046;6.772;2023-10-08T04:54:27;16.30;99.90
5508;DHT22;2776;51.046;6.772;2023-10-08T04:56:57;16.30;99.90
5508;DHT22;2776;51.046;6.772;2023-10-08T04:59:27;16.30;99.90
5508;DHT22;2776;51.046;6.772;2023-10-08T05:01:59;16.30;99.90
5508;DHT22;2776;51.046;6.772;2023-10-08T05:04:45;16.30;99.90
5508;DHT22;2776;51.046;6.772;2023-10-08T05:07:21;16.30;99.90
5508;DHT22;2776;51.046;6.772;2023-10-08T05:10:06;16.30;99.90
5508;DHT22;2776;51.046;6.772;2023-10-08T05:12:57;16.30;99.90
5508;DHT22;2776;51.046;6.772;2023-10-08T05:15:42;16.30;99.90
5508;DHT22;2776;51.046;6.772;2023-10-08T05:18:27;16.30;99.90
5508;DHT22;2776;51.046;6.772;2023-10-08T05:21:14;16.20;99.90
5508;DHT22;2776;51.046;6.772;2023-10-08T05:23:51;16.20;99.90
5508;DHT22;2776;51.046;6.772;2023-10-08T05:26:37;16.20;99.90
5508;DHT22;2776;51.046;6.772;2023-10-08T05:29:08;16.10;99.90
5508;DHT22;2776;51.046;6.772;2023-10-08T05:31:50;16.10;99.90
5508;DHT22;2776;51.046;6.772;2023-10-08T05:34:40;16.10;99.90
5508;DHT22;2776;51.046;6.772;2023-10-08T05:37:21;16.10;99.90
5508;DHT22;2776;51.046;6.772;2023-10-08T05:40:08;16.00;99.90
5508;DHT22;2776;51.046;6.772;2023-10-08T05:42:46;16.10;99.90
5508;DHT22;2776;51.046;6.772;2023-10-08T05:45:15;16.00;99.90
5508;DHT22;2776;51.046;6.772;2023-10-08T05:47:56;16.00;99.90
5508;DHT22;2776;51.046;6.772;2023-10-08T05:50:40;16.00;99.90
5508;DHT22;2776;51.046;6.772;2023-10-08T05:53:20;15.90;99.90
5508;DHT22;2776;51.046;6.772;2023-10-08T05:56:08;15.90;99.90
5508;DHT22;2776;51.046;6.772;2023-10-08T05:58:53;15.90;99.90
5508;DHT22;2776;51.046;6.772;2023-10-08T06:01:40;15.90;99.90
5508;DHT22;2776;51.046;6.772;2023-10-08T06:04:08;15.90;99.90
5508;DHT22;2776;51.046;6.772;2023-10-08T06:07:07;15.90;99.90
5508;DHT22;2776;51.046;6.772;2023-10-08T06:09:42;15.90;99.90
5508;DHT22;2776;51.046;6.772;2023-10-08T06:12:16;16.00;99.90
5508;DHT22;2776;51.046;6.772;2023-10-08T06:14:55;16.10;99.90
5508;DHT22;2776;51.046;6.772;2023-10-08T06:17:34;16.10;99.90
5508;DHT22;2776;51.046;6.772;2023-10-08T06:20:22;16.10;99.90
5508;DHT22;2776;51.046;6.772;2023-10-08T06:22:51;16.20;99.90
5508;DHT22;2776;51.046;6.772;2023-10-08T06:25:25;16.20;99.90
5508;DHT22;2776;51.046;6.772;2023-10-08T06:27:53;16.10;99.90
5508;DHT22;2776;51.046;6.772;2023-10-08T06:30:21;16.10;99.90
5508;DHT22;2776;51.046;6.772;2023-10-08T06:32:50;16.10;99.90
5508;DHT22;2776;51.046;6.772;2023-10-08T06:35:19;16.20;99.90
5508;DHT22;2776;51.046;6.772;2023-10-08T06:37:51;16.30;99.90
5508;DHT22;2776;51.046;6.772;2023-10-08T06:40:21;16.30;99.90
5508;DHT22;2776;51.046;6.772;2023-10-08T06:43:06;16.40;99.90
5508;DHT22;2776;51.046;6.772;2023-10-08T06:45:40;16.50;99.90
5508;DHT22;2776;51.046;6.772;2023-10-08T06:48:08;16.50;99.90
5508;DHT22;2776;51.046;6.772;2023-10-08T06:50:34;16.60;99.90
5508;DHT22;2776;51.046;6.772;2023-10-08T06:53:04;16.50;99.90
5508;DHT22;2776;51.046;6.772;2023-10-08T06:55:33;16.60;99.90
5508;DHT22;2776;51.046;6.772;2023-10-08T06:58:01;16.70;99.90
5508;DHT22;2776;51.046;6.772;2023-10-08T07:00:31;16.80;99.90
5508;DHT22;2776;51.046;6.772;2023-10-08T07:03:06;16.90;99.90
5508;DHT22;2776;51.046;6.772;2023-10-08T07:05:34;17.00;99.90
5508;DHT22;2776;51.046;6.772;2023-10-08T07:08:11;17.10;99.90
5508;DHT22;2776;51.046;6.772;2023-10-08T07:10:40;17.20;99.90
5508;DHT22;2776;51.046;6.772;2023-10-08T07:13:11;17.20;99.90
5508;DHT22;2776;51.046;6.772;2023-10-08T07:15:43;17.30;99.90
5508;DHT22;2776;51.046;6.772;2023-10-08T07:18:10;17.30;99.90
5508;DHT22;2776;51.046;6.772;2023-10-08T07:20:39;17.40;99.90
5508;DHT22;2776;51.046;6.772;2023-10-08T07:23:08;17.40;99.90
5508;DHT22;2776;51.046;6.772;2023-10-08T07:25:52;17.40;99.90
5508;DHT22;2776;51.046;6.772;2023-10-08T07:28:22;17.50;99.90
5508;DHT22;2776;51.046;6.772;2023-10-08T07:30:51;17.50;99.90
5508;DHT22;2776;51.046;6.772;2023-10-08T07:33:18;17.60;99.90
5508;DHT22;2776;51.046;6.772;2023-10-08T07:35:46;17.70;99.90
5508;DHT22;2776;51.046;6.772;2023-10-08T07:38:23;17.70;99.90
5508;DHT22;2776;51.046;6.772;2023-10-08T07:40:54;17.80;99.90
5508;DHT22;2776;51.046;6.772;2023-10-08T07:43:21;17.80;99.90
5508;DHT22;2776;51.046;6.772;2023-10-08T07:45:48;17.90;99.90
5508;DHT22;2776;51.046;6.772;2023-10-08T07:48:15;18.10;99.90
5508;DHT22;2776;51.046;6.772;2023-10-08T07:50:43;18.10;99.90
5508;DHT22;2776;51.046;6.772;2023-10-08T07:53:11;18.10;99.90
5508;DHT22;2776;51.046;6.772;2023-10-08T07:55:44;18.20;99.90
5508;DHT22;2776;51.046;6.772;2023-10-08T07:58:13;18.30;99.90
5508;DHT22;2776;51.046;6.772;2023-10-08T08:00:41;18.40;99.90
5508;DHT22;2776;51.046;6.772;2023-10-08T08:03:18;18.50;99.90
5508;DHT22;2776;51.046;6.772;2023-10-08T08:05:44;18.60;99.90
5508;DHT22;2776;51.046;6.772;2023-10-08T08:08:12;18.80;99.90
5508;DHT22;2776;51.046;6.772;2023-10-08T08:10:43;18.90;99.90
5508;DHT22;2776;51.046;6.772;2023-10-08T08:13:10;18.90;99.90
5508;DHT22;2776;51.046;6.772;2023-10-08T08:15:40;18.90;99.90
5508;DHT22;2776;51.046;6.772;2023-10-08T08:18:16;18.90;99.90
5508;DHT22;2776;51.046;6.772;2023-10-08T08:20:48;18.90;99.90
5508;DHT22;2776;51.046;6.772;2023-10-08T08:23:14;18.90;99.90
5508;DHT22;2776;51.046;6.772;2023-10-08T08:25:43;18.90;99.90
5508;DHT22;2776;51.046;6.772;2023-10-08T08:28:21;18.90;99.90
5508;DHT22;2776;51.046;6.772;2023-10-08T08:30:51;19.00;99.90
5508;DHT22;2776;51.046;6.772;2023-10-08T08:33:21;19.00;99.90
5508;DHT22;2776;51.046;6.772;2023-10-08T08:35:58;19.20;99.90
5508;DHT22;2776;51.046;6.772;2023-10-08T08:38:26;19.30;99.90
5508;DHT22;2776;51.046;6.772;2023-10-08T08:41:02;19.40;99.90
5508;DHT22;2776;51.046;6.772;2023-10-08T08:43:33;19.30;99.90
5508;DHT22;2776;51.046;6.772;2023-10-08T08:46:02;19.40;99.90
5508;DHT22;2776;51.046;6.772;2023-10-08T08:48:33;19.40;99.90
5508;DHT22;2776;51.046;6.772;2023-10-08T08:51:00;19.40;99.90
5508;DHT22;2776;51.046;6.772;2023-10-08T08:53:27;19.30;99.90
5508;DHT22;2776;51.046;6.772;2023-10-08T08:55:55;19.40;99.90
5508;DHT22;2776;51.046;6.772;2023-10-08T08:58:22;19.30;99.90
5508;DHT22;2776;51.046;6.772;2023-10-08T09:00:51;19.40;99.90
5508;DHT22;2776;51.046;6.772;2023-10-08T09:03:20;19.50;99.90
5508;DHT22;2776;51.046;6.772;2023-10-08T09:05:47;19.60;99.90
5508;DHT22;2776;51.046;6.772;2023-10-08T09:08:16;19.70;99.90
5508;DHT22;2776;51.046;6.772;2023-10-08T09:10:44;19.70;99.90
5508;DHT22;2776;51.046;6.772;2023-10-08T09:13:19;19.80;99.90
5508;DHT22;2776;51.046;6.772;2023-10-08T09:15:47;20.00;99.90
5508;DHT22;2776;51.046;6.772;2023-10-08T09:18:14;20.10;99.90
5508;DHT22;2776;51.046;6.772;2023-10-08T09:20:42;20.20;99.90
5508;DHT22;2776;51.046;6.772;2023-10-08T09:23:10;20.30;99.90
5508;DHT22;2776;51.046;6.772;2023-10-08T09:25:38;20.50;99.90
5508;DHT22;2776;51.046;6.772;2023-10-08T09:28:06;20.60;99.90
5508;DHT22;2776;51.046;6.772;2023-10-08T09:30:34;20.70;99.90
5508;DHT22;2776;51.046;6.772;2023-10-08T09:33:04;20.70;99.90
5508;DHT22;2776;51.046;6.772;2023-10-08T09:35:32;20.70;99.90
5508;DHT22;2776;51.046;6.772;2023-10-08T09:38:01;20.80;99.90
5508;DHT22;2776;51.046;6.772;2023-10-08T09:40:29;20.80;99.90
5508;DHT22;2776;51.046;6.772;2023-10-08T09:42:56;20.70;99.90
5508;DHT22;2776;51.046;6.772;2023-10-08T09:45:23;20.70;99.90
5508;DHT22;2776;51.046;6.772;2023-10-08T09:47:53;20.70;99.90
5508;DHT22;2776;51.046;6.772;2023-10-08T09:50:27;20.80;99.90
5508;DHT22;2776;51.046;6.772;2023-10-08T09:53:01;20.80;99.90
5508;DHT22;2776;51.046;6.772;2023-10-08T09:55:31;20.80;99.90
5508;DHT22;2776;51.046;6.772;2023-10-08T09:57:58;20.60;99.90
5508;DHT22;2776;51.046;6.772;2023-10-08T10:00:27;20.70;99.90
5508;DHT22;2776;51.046;6.772;2023-10-08T10:02:58;20.60;99.90
5508;DHT22;2776;51.046;6.772;2023-10-08T10:05:29;20.60;99.90
5508;DHT22;2776;51.046;6.772;2023-10-08T10:07:57;20.70;99.90
5508;DHT22;2776;51.046;6.772;2023-10-08T10:10:29;20.80;99.90
5508;DHT22;2776;51.046;6.772;2023-10-08T10:12:58;20.90;99.90
5508;DHT22;2776;51.046;6.772;2023-10-08T10:15:25;20.80;99.90
5508;DHT22;2776;51.046;6.772;2023-10-08T10:17:54;20.70;99.90
5508;DHT22;2776;51.046;6.772;2023-10-08T10:20:21;20.80;99.90
5508;DHT22;2776;51.046;6.772;2023-10-08T10:22:48;20.80;99.90
5508;DHT22;2776;51.046;6.772;2023-10-08T10:25:16;20.90;99.90
5508;DHT22;2776;51.046;6.772;2023-10-08T10:30:50;21.10;99.90
5508;DHT22;2776;51.046;6.772;2023-10-08T10:33:17;21.00;99.90
5508;DHT22;2776;51.046;6.772;2023-10-08T10:35:50;20.90;99.90
5508;DHT22;2776;51.046;6.772;2023-10-08T10:38:18;21.00;99.90
5508;DHT22;2776;51.046;6.772;2023-10-08T10:40:48;21.00;99.90
5508;DHT22;2776;51.046;6.772;2023-10-08T10:43:23;21.10;99.90
5508;DHT22;2776;51.046;6.772;2023-10-08T10:45:59;21.10;99.90
5508;DHT22;2776;51.046;6.772;2023-10-08T10:48:31;21.20;99.90
5508;DHT22;2776;51.046;6.772;2023-10-08T10:51:00;21.30;99.90
5508;DHT22;2776;51.046;6.772;2023-10-08T10:53:37;21.40;99.90
5508;DHT22;2776;51.046;6.772;2023-10-08T10:56:12;21.40;99.90
5508;DHT22;2776;51.046;6.772;2023-10-08T10:58:45;21.50;99.90
5508;DHT22;2776;51.046;6.772;2023-10-08T11:01:14;21.60;99.90
5508;DHT22;2776;51.046;6.772;2023-10-08T11:03:49;21.60;99.90
5508;DHT22;2776;51.046;6.772;2023-10-08T11:06:17;21.60;99.90
5508;DHT22;2776;51.046;6.772;2023-10-08T11:08:49;21.80;99.90
5508;DHT22;2776;51.046;6.772;2023-10-08T11:11:17;22.00;99.90
5508;DHT22;2776;51.046;6.772;2023-10-08T11:13:44;22.00;99.90
5508;DHT22;2776;51.046;6.772;2023-10-08T11:16:18;22.00;99.90
5508;DHT22;2776;51.046;6.772;2023-10-08T11:18:50;22.00;99.90
5508;DHT22;2776;51.046;6.772;2023-10-08T11:21:23;22.00;99.90
5508;DHT22;2776;51.046;6.772;2023-10-08T11:23:52;22.10;99.90
5508;DHT22;2776;51.046;6.772;2023-10-08T11:26:25;22.20;99.90
5508;DHT22;2776;51.046;6.772;2023-10-08T11:28:58;22.20;99.90
5508;DHT22;2776;51.046;6.772;2023-10-08T11:31:28;22.20;99.90
5508;DHT22;2776;51.046;6.772;2023-10-08T11:33:59;22.30;99.90
5508;DHT22;2776;51.046;6.772;2023-10-08T11:36:28;22.40;99.90
5508;DHT22;2776;51.046;6.772;2023-10-08T11:38:56;22.40;99.90
5508;DHT22;2776;51.046;6.772;2023-10-08T11:41:28;22.40;99.90
5508;DHT22;2776;51.046;6.772;2023-10-08T11:43:56;22.50;99.90
5508;DHT22;2776;51.046;6.772;2023-10-08T11:46:24;22.50;99.90
5508;DHT22;2776;51.046;6.772;2023-10-08T11:48:54;22.40;99.90
5508;DHT22;2776;51.046;6.772;2023-10-08T11:51:29;22.20;99.90
5508;DHT22;2776;51.046;6.772;2023-10-08T11:53:57;22.10;99.90
5508;DHT22;2776;51.046;6.772;2023-10-08T11:56:25;22.10;99.90
5508;DHT22;2776;51.046;6.772;2023-10-08T11:58:53;22.00;99.90
5508;DHT22;2776;51.046;6.772;2023-10-08T12:01:22;22.00;99.90
5508;DHT22;2776;51.046;6.772;2023-10-08T12:03:49;22.00;99.90
5508;DHT22;2776;51.046;6.772;2023-10-08T12:06:17;22.10;99.90
5508;DHT22;2776;51.046;6.772;2023-10-08T12:08:46;22.10;99.90
5508;DHT22;2776;51.046;6.772;2023-10-08T12:11:13;22.10;99.90
5508;DHT22;2776;51.046;6.772;2023-10-08T12:13:40;22.20;99.90
5508;DHT22;2776;51.046;6.772;2023-10-08T12:16:13;22.20;99.90
5508;DHT22;2776;51.046;6.772;2023-10-08T12:18:46;22.10;99.90
5508;DHT22;2776;51.046;6.772;2023-10-08T12:21:19;22.00;99.90
5508;DHT22;2776;51.046;6.772;2023-10-08T12:23:47;22.00;99.90
5508;DHT22;2776;51.046;6.772;2023-10-08T12:26:15;21.90;99.90
5508;DHT22;2776;51.046;6.772;2023-10-08T12:28:44;21.90;99.90
5508;DHT22;2776;51.046;6.772;2023-10-08T12:31:12;21.80;99.90
5508;DHT22;2776;51.046;6.772;2023-10-08T12:33:41;21.80;99.90
5508;DHT22;2776;51.046;6.772;2023-10-08T12:36:09;21.80;99.90
5508;DHT22;2776;51.046;6.772;2023-10-08T12:38:40;21.80;99.90
5508;DHT22;2776;51.046;6.772;2023-10-08T12:41:08;21.80;99.90
5508;DHT22;2776;51.046;6.772;2023-10-08T12:43:38;21.90;99.90
5508;DHT22;2776;51.046;6.772;2023-10-08T12:46:08;21.80;99.90
5508;DHT22;2776;51.046;6.772;2023-10-08T12:48:41;21.80;99.90
5508;DHT22;2776;51.046;6.772;2023-10-08T12:51:09;21.80;99.90
5508;DHT22;2776;51.046;6.772;2023-10-08T12:53:37;21.90;99.90
5508;DHT22;2776;51.046;6.772;2023-10-08T12:56:06;22.00;99.90
5508;DHT22;2776;51.046;6.772;2023-10-08T12:58:34;22.00;99.90
5508;DHT22;2776;51.046;6.772;2023-10-08T13:01:06;22.00;99.90
5508;DHT22;2776;51.046;6.772;2023-10-08T13:03:35;21.90;99.90
5508;DHT22;2776;51.046;6.772;2023-10-08T13:06:07;21.90;99.90
5508;DHT22;2776;51.046;6.772;2023-10-08T13:08:37;21.80;99.90
5508;DHT22;2776;51.046;6.772;2023-10-08T13:11:05;21.80;99.90
5508;DHT22;2776;51.046;6.772;2023-10-08T13:13:31;21.80;99.90
5508;DHT22;2776;51.046;6.772;2023-10-08T13:15:59;21.80;99.90
5508;DHT22;2776;51.046;6.772;2023-10-08T13:18:32;21.90;99.90
5508;DHT22;2776;51.046;6.772;2023-10-08T13:20:59;21.90;99.90
5508;DHT22;2776;51.046;6.772;2023-10-08T13:23:26;22.10;99.90
5508;DHT22;2776;51.046;6.772;2023-10-08T13:25:53;22.20;99.90
5508;DHT22;2776;51.046;6.772;2023-10-08T13:28:22;22.20;99.90
5508;DHT22;2776;51.046;6.772;2023-10-08T13:30:49;22.30;99.90
5508;DHT22;2776;51.046;6.772;2023-10-08T13:33:18;22.30;99.90
5508;DHT22;2776;51.046;6.772;2023-10-08T13:35:45;22.30;99.90
5508;DHT22;2776;51.046;6.772;2023-10-08T13:38:15;22.30;99.90
5508;DHT22;2776;51.046;6.772;2023-10-08T13:40:42;22.40;99.90
5508;DHT22;2776;51.046;6.772;2023-10-08T13:43:29;22.30;99.90
5508;DHT22;2776;51.046;6.772;2023-10-08T13:46:01;22.30;99.90
5508;DHT22;2776;51.046;6.772;2023-10-08T13:48:30;22.30;99.90
5508;DHT22;2776;51.046;6.772;2023-10-08T13:51:00;22.30;99.90
5508;DHT22;2776;51.046;6.772;2023-10-08T13:53:26;22.30;99.90
5508;DHT22;2776;51.046;6.772;2023-10-08T13:55:56;22.30;99.90
5508;DHT22;2776;51.046;6.772;2023-10-08T13:58:23;22.30;99.90
5508;DHT22;2776;51.046;6.772;2023-10-08T14:00:52;22.30;99.90
5508;DHT22;2776;51.046;6.772;2023-10-08T14:03:18;22.20;99.90
5508;DHT22;2776;51.046;6.772;2023-10-08T14:05:47;22.20;99.90
5508;DHT22;2776;51.046;6.772;2023-10-08T14:08:16;22.20;99.90
5508;DHT22;2776;51.046;6.772;2023-10-08T14:10:43;22.30;99.90
5508;DHT22;2776;51.046;6.772;2023-10-08T14:13:10;22.30;99.90
5508;DHT22;2776;51.046;6.772;2023-10-08T14:15:37;22.30;99.90
5508;DHT22;2776;51.046;6.772;2023-10-08T14:18:11;22.30;99.90
5508;DHT22;2776;51.046;6.772;2023-10-08T14:20:42;22.10;99.90
5508;DHT22;2776;51.046;6.772;2023-10-08T14:23:12;22.00;99.90
5508;DHT22;2776;51.046;6.772;2023-10-08T14:25:42;21.90;99.90
5508;DHT22;2776;51.046;6.772;2023-10-08T14:28:10;21.90;99.90
5508;DHT22;2776;51.046;6.772;2023-10-08T14:30:47;21.80;99.90
5508;DHT22;2776;51.046;6.772;2023-10-08T14:33:20;21.80;99.90
5508;DHT22;2776;51.046;6.772;2023-10-08T14:35:52;21.80;99.90
5508;DHT22;2776;51.046;6.772;2023-10-08T14:38:36;21.80;99.90
5508;DHT22;2776;51.046;6.772;2023-10-08T14:41:20;21.80;99.90
5508;DHT22;2776;51.046;6.772;2023-10-08T14:44:13;21.90;99.90
5508;DHT22;2776;51.046;6.772;2023-10-08T14:46:40;21.80;99.90
5508;DHT22;2776;51.046;6.772;2023-10-08T14:49:08;21.60;99.90
5508;DHT22;2776;51.046;6.772;2023-10-08T14:51:37;21.50;99.90
5508;DHT22;2776;51.046;6.772;2023-10-08T14:54:06;21.30;99.90
5508;DHT22;2776;51.046;6.772;2023-10-08T14:56:33;21.20;99.90
5508;DHT22;2776;51.046;6.772;2023-10-08T14:59:00;21.10;99.90
5508;DHT22;2776;51.046;6.772;2023-10-08T15:01:27;21.10;99.90
5508;DHT22;2776;51.046;6.772;2023-10-08T15:03:54;21.00;99.90
5508;DHT22;2776;51.046;6.772;2023-10-08T15:06:22;21.00;99.90
5508;DHT22;2776;51.046;6.772;2023-10-08T15:08:49;21.00;99.90
5508;DHT22;2776;51.046;6.772;2023-10-08T15:11:17;21.10;99.90
5508;DHT22;2776;51.046;6.772;2023-10-08T15:13:44;21.10;99.90
5508;DHT22;2776;51.046;6.772;2023-10-08T15:16:11;21.10;99.90
5508;DHT22;2776;51.046;6.772;2023-10-08T15:18:39;21.00;99.90
5508;DHT22;2776;51.046;6.772;2023-10-08T15:21:08;21.00;99.90
5508;DHT22;2776;51.046;6.772;2023-10-08T15:23:36;20.90;99.90
5508;DHT22;2776;51.046;6.772;2023-10-08T15:26:03;20.90;99.90
5508;DHT22;2776;51.046;6.772;2023-10-08T15:28:30;20.80;99.90
5508;DHT22;2776;51.046;6.772;2023-10-08T15:30:57;20.80;99.90
5508;DHT22;2776;51.046;6.772;2023-10-08T15:33:24;20.90;99.90
5508;DHT22;2776;51.046;6.772;2023-10-08T15:35:52;20.90;99.90
5508;DHT22;2776;51.046;6.772;2023-10-08T15:38:18;20.90;99.90
5508;DHT22;2776;51.046;6.772;2023-10-08T15:40:46;20.90;99.90
5508;DHT22;2776;51.046;6.772;2023-10-08T15:43:15;20.90;99.90
5508;DHT22;2776;51.046;6.772;2023-10-08T15:45:41;20.90;99.90
5508;DHT22;2776;51.046;6.772;2023-10-08T15:48:10;20.90;99.90
5508;DHT22;2776;51.046;6.772;2023-10-08T15:50:37;20.80;99.90
5508;DHT22;2776;51.046;6.772;2023-10-08T15:53:04;20.80;99.90
5508;DHT22;2776;51.046;6.772;2023-10-08T15:55:31;20.80;99.90
5508;DHT22;2776;51.046;6.772;2023-10-08T15:57:59;20.90;99.90
5508;DHT22;2776;51.046;6.772;2023-10-08T16:00:26;20.80;99.90
5508;DHT22;2776;51.046;6.772;2023-10-08T16:02:53;20.80;99.90
5508;DHT22;2776;51.046;6.772;2023-10-08T16:05:20;20.80;99.90
5508;DHT22;2776;51.046;6.772;2023-10-08T16:07:46;20.80;99.90
5508;DHT22;2776;51.046;6.772;2023-10-08T16:10:14;20.80;99.90
5508;DHT22;2776;51.046;6.772;2023-10-08T16:12:41;20.70;99.90
5508;DHT22;2776;51.046;6.772;2023-10-08T16:15:09;20.70;99.90
5508;DHT22;2776;51.046;6.772;2023-10-08T16:17:36;20.70;99.90
5508;DHT22;2776;51.046;6.772;2023-10-08T16:20:05;20.60;99.90
5508;DHT22;2776;51.046;6.772;2023-10-08T16:22:39;20.60;99.90
5508;DHT22;2776;51.046;6.772;2023-10-08T16:25:06;20.50;99.90
5508;DHT22;2776;51.046;6.772;2023-10-08T16:27:33;20.50;99.90
5508;DHT22;2776;51.046;6.772;2023-10-08T16:30:00;20.40;99.90